createdAt,value
2022-12-27T00:00:37.019Z,56.30
2022-12-27T00:03:04.011Z,56.00
2022-12-27T00:05:30.797Z,55.80
2022-12-27T00:07:58.876Z,56.10
2022-12-27T00:10:25.531Z,56.30
2022-12-27T00:12:52.229Z,56.40
2022-12-27T00:15:19.358Z,56.60
2022-12-27T00:17:46.050Z,56.70
2022-12-27T00:20:12.800Z,56.80
2022-12-27T00:22:39.807Z,56.70
2022-12-27T00:25:09.088Z,56.80
2022-12-27T00:27:35.826Z,56.70
2022-12-27T00:30:02.559Z,56.90
2022-12-27T00:32:29.249Z,56.90
2022-12-27T00:34:55.925Z,56.80
2022-12-27T00:37:22.730Z,56.90
2022-12-27T00:39:49.391Z,56.90
2022-12-27T00:42:17.366Z,57.10
2022-12-27T00:44:44.085Z,57.40
2022-12-27T00:47:10.839Z,57.20
2022-12-27T00:49:37.583Z,57.10
2022-12-27T00:52:04.730Z,57.30
2022-12-27T00:54:31.491Z,57.40
2022-12-27T00:56:58.159Z,57.30
2022-12-27T00:59:26.216Z,57.40
2022-12-27T01:01:53.310Z,57.30
2022-12-27T01:04:20.150Z,57.90
2022-12-27T01:06:46.823Z,57.20
2022-12-27T01:09:13.440Z,57.20
2022-12-27T01:11:40.787Z,56.90
2022-12-27T01:14:07.496Z,56.90
2022-12-27T01:16:35.591Z,56.90
2022-12-27T01:19:02.507Z,57.10
2022-12-27T01:21:29.334Z,57.00
2022-12-27T01:23:56.230Z,57.20
2022-12-27T01:26:23.599Z,57.00
2022-12-27T01:28:51.155Z,57.20
2022-12-27T01:31:20.911Z,57.20
2022-12-27T01:33:49.265Z,57.10
2022-12-27T01:36:18.211Z,57.00
2022-12-27T01:38:44.924Z,57.10
2022-12-27T01:41:14.873Z,57.10
2022-12-27T01:43:41.596Z,57.00
2022-12-27T01:46:08.316Z,57.00
2022-12-27T01:48:35.037Z,56.90
2022-12-27T01:51:05.560Z,56.90
2022-12-27T01:53:36.995Z,57.40
2022-12-27T01:56:07.096Z,56.80
2022-12-27T01:58:39.130Z,56.60
2022-12-27T02:01:10.573Z,56.50
2022-12-27T02:03:40.351Z,56.70
2022-12-27T02:06:10.823Z,56.70
2022-12-27T02:08:45.205Z,56.40
2022-12-27T02:11:13.600Z,56.50
2022-12-27T02:13:44.265Z,56.20
2022-12-27T02:16:13.579Z,56.40
2022-12-27T02:18:40.833Z,56.60
2022-12-27T02:21:30.947Z,56.40
2022-12-27T02:24:14.734Z,56.20
2022-12-27T02:27:02.300Z,56.30
2022-12-27T02:29:52.182Z,55.90
2022-12-27T02:32:27.791Z,56.00
2022-12-27T02:35:02.404Z,56.20
2022-12-27T02:37:32.791Z,56.40
2022-12-27T02:40:03.024Z,55.90
2022-12-27T02:42:29.688Z,55.90
2022-12-27T02:44:57.788Z,56.00
2022-12-27T02:47:26.394Z,55.90
2022-12-27T02:49:53.087Z,56.00
2022-12-27T02:52:34.222Z,56.10
2022-12-27T02:55:18.336Z,56.00
2022-12-27T02:57:52.736Z,56.10
2022-12-27T03:00:23.241Z,56.20
2022-12-27T03:03:01.943Z,56.20
2022-12-27T03:05:38.334Z,56.10
2022-12-27T03:08:11.287Z,56.30
2022-12-27T03:10:45.334Z,56.00
2022-12-27T03:13:19.467Z,56.10
2022-12-27T03:16:01.073Z,56.20
2022-12-27T03:18:46.398Z,56.00
2022-12-27T03:21:17.829Z,55.90
2022-12-27T03:23:46.488Z,56.10
2022-12-27T03:26:16.616Z,56.00
2022-12-27T03:28:45.193Z,55.90
2022-12-27T03:31:19.355Z,55.90
2022-12-27T03:33:48.569Z,55.90
2022-12-27T03:36:18.259Z,55.80
2022-12-27T03:38:50.941Z,55.60
2022-12-27T03:41:24.586Z,55.90
2022-12-27T03:43:51.588Z,55.80
2022-12-27T03:46:26.954Z,55.70
2022-12-27T03:49:08.725Z,55.60
2022-12-27T03:51:38.705Z,55.40
2022-12-27T03:54:09.294Z,55.40
2022-12-27T03:56:37.346Z,55.60
2022-12-27T03:59:05.664Z,55.80
2022-12-27T04:01:33.715Z,55.60
2022-12-27T04:04:00.428Z,55.50
2022-12-27T04:06:27.085Z,55.60
2022-12-27T04:08:53.782Z,55.70
2022-12-27T04:11:20.441Z,55.70
2022-12-27T04:13:47.150Z,55.80
2022-12-27T04:16:13.864Z,56.00
2022-12-27T04:18:42.093Z,56.00
2022-12-27T04:21:08.778Z,56.60
2022-12-27T04:23:35.453Z,55.90
2022-12-27T04:26:02.082Z,55.70
2022-12-27T04:28:28.783Z,55.90
2022-12-27T04:30:55.496Z,55.80
2022-12-27T04:33:22.198Z,55.90
2022-12-27T04:35:50.255Z,55.90
2022-12-27T04:38:16.874Z,55.80
2022-12-27T04:40:43.529Z,55.70
2022-12-27T04:43:10.271Z,55.90
2022-12-27T04:45:36.990Z,55.80
2022-12-27T04:48:04.257Z,55.70
2022-12-27T04:50:33.033Z,55.70
2022-12-27T04:53:01.063Z,55.70
2022-12-27T04:55:29.262Z,55.90
2022-12-27T04:57:56.860Z,55.70
2022-12-27T05:00:26.067Z,55.70
2022-12-27T05:02:53.146Z,55.70
2022-12-27T05:05:20.560Z,55.80
2022-12-27T05:07:47.678Z,55.70
2022-12-27T05:10:15.839Z,55.60
2022-12-27T05:12:42.554Z,55.60
2022-12-27T05:15:09.811Z,55.70
2022-12-27T05:17:36.448Z,55.50
2022-12-27T05:20:03.519Z,55.60
2022-12-27T05:22:30.164Z,55.70
2022-12-27T05:24:56.822Z,55.80
2022-12-27T05:27:25.878Z,55.80
2022-12-27T05:29:52.557Z,55.80
2022-12-27T05:32:19.243Z,55.90
2022-12-27T05:34:45.969Z,55.90
2022-12-27T05:37:12.703Z,55.90
2022-12-27T05:39:39.452Z,55.80
2022-12-27T05:42:06.130Z,55.80
2022-12-27T05:44:34.129Z,55.80
2022-12-27T05:47:00.850Z,55.80
2022-12-27T05:49:27.584Z,55.80
2022-12-27T05:51:54.432Z,55.80
2022-12-27T05:54:21.113Z,55.80
2022-12-27T05:56:48.349Z,55.90
2022-12-27T05:59:15.033Z,55.90
2022-12-27T06:01:43.171Z,55.90
2022-12-27T06:04:10.080Z,56.00
2022-12-27T06:06:36.761Z,56.00
2022-12-27T06:09:03.636Z,56.00
2022-12-27T06:11:30.270Z,56.00
2022-12-27T06:13:56.914Z,56.00
2022-12-27T06:16:23.912Z,56.00
2022-12-27T06:18:51.966Z,56.00
2022-12-27T06:21:21.349Z,55.90
2022-12-27T06:23:49.442Z,55.90
2022-12-27T06:26:18.670Z,55.90
2022-12-27T06:28:45.392Z,56.00
2022-12-27T06:31:12.495Z,56.10
2022-12-27T06:33:39.201Z,56.20
2022-12-27T06:36:08.753Z,56.10
2022-12-27T06:38:35.577Z,56.20
2022-12-27T06:41:02.411Z,56.30
2022-12-27T06:43:29.123Z,56.40
2022-12-27T06:45:56.562Z,56.50
2022-12-27T06:48:23.453Z,56.40
2022-12-27T06:50:50.113Z,57.10
2022-12-27T06:53:18.267Z,56.50
2022-12-27T06:55:44.980Z,56.60
2022-12-27T06:58:11.651Z,56.60
2022-12-27T07:00:38.283Z,56.80
2022-12-27T07:03:05.007Z,56.80
2022-12-27T07:05:31.857Z,56.90
2022-12-27T07:07:58.535Z,57.00
2022-12-27T07:10:26.581Z,57.00
2022-12-27T07:12:53.513Z,57.00
2022-12-27T07:15:20.248Z,57.10
2022-12-27T07:17:46.935Z,57.20
2022-12-27T07:20:13.705Z,57.20
2022-12-27T07:22:40.396Z,57.30
2022-12-27T07:25:07.814Z,57.30
2022-12-27T07:27:36.346Z,57.30
2022-12-27T07:30:03.888Z,57.30
2022-12-27T07:32:30.782Z,57.20
2022-12-27T07:34:57.530Z,57.20
2022-12-27T07:37:24.168Z,57.20
2022-12-27T07:39:50.918Z,57.30
2022-12-27T07:42:17.612Z,57.10
2022-12-27T07:44:45.712Z,57.20
2022-12-27T07:47:12.355Z,57.20
2022-12-27T07:49:39.043Z,57.10
2022-12-27T07:52:05.735Z,57.10
2022-12-27T07:54:32.458Z,57.20
2022-12-27T07:56:59.129Z,57.10
2022-12-27T07:59:25.903Z,57.30
2022-12-27T08:02:26.887Z,57.40
2022-12-27T08:05:46.282Z,57.40
2022-12-27T08:08:11.293Z,57.60
2022-12-27T08:10:37.979Z,57.80
2022-12-27T08:13:12.549Z,57.70
2022-12-27T08:15:50.341Z,57.50
2022-12-27T08:18:16.985Z,57.50
2022-12-27T08:20:44.979Z,57.50
2022-12-27T08:23:11.603Z,57.80
2022-12-27T08:25:40.930Z,57.90
2022-12-27T08:28:14.106Z,57.90
2022-12-27T08:30:42.752Z,58.00
2022-12-27T08:33:09.596Z,58.20
2022-12-27T08:35:55.157Z,58.10
2022-12-27T08:38:23.233Z,58.30
2022-12-27T08:40:49.906Z,58.30
2022-12-27T08:43:16.586Z,58.80
2022-12-27T08:45:43.259Z,58.90
2022-12-27T08:48:10.047Z,58.80
2022-12-27T08:50:36.929Z,58.70
2022-12-27T08:53:05.049Z,58.70
2022-12-27T08:55:34.058Z,58.60
2022-12-27T08:58:02.212Z,58.70
2022-12-27T09:00:29.218Z,58.70
2022-12-27T09:02:56.042Z,58.70
2022-12-27T09:05:24.204Z,58.80
2022-12-27T09:07:51.018Z,59.00
2022-12-27T09:10:18.359Z,59.00
2022-12-27T09:12:46.347Z,58.60
2022-12-27T09:15:13.240Z,58.70
2022-12-27T09:17:40.573Z,58.70
2022-12-27T09:20:08.484Z,58.70
2022-12-27T09:22:35.255Z,58.70
2022-12-27T09:25:01.954Z,58.60
2022-12-27T09:27:28.652Z,58.40
2022-12-27T09:29:56.638Z,58.50
2022-12-27T09:32:23.590Z,58.50
2022-12-27T09:34:50.474Z,58.60
2022-12-27T09:37:17.161Z,58.60
2022-12-27T09:39:43.823Z,58.70
2022-12-27T09:42:48.521Z,58.50
2022-12-27T09:45:18.298Z,58.70
2022-12-27T09:47:52.763Z,58.80
2022-12-27T09:50:24.719Z,58.90
2022-12-27T09:52:59.329Z,58.80
2022-12-27T09:55:37.323Z,58.90
2022-12-27T09:58:17.782Z,59.00
2022-12-27T10:00:46.689Z,58.70
2022-12-27T10:03:13.482Z,58.90
2022-12-27T10:05:44.747Z,58.80
2022-12-27T10:08:31.105Z,58.80
2022-12-27T10:11:04.489Z,58.60
2022-12-27T10:13:42.953Z,58.80
2022-12-27T10:16:20.396Z,58.50
2022-12-27T10:19:05.545Z,58.70
2022-12-27T10:21:38.549Z,58.60
2022-12-27T10:24:17.645Z,58.70
2022-12-27T10:26:44.532Z,58.60
2022-12-27T10:29:17.120Z,58.60
2022-12-27T10:31:45.393Z,58.60
2022-12-27T10:34:15.304Z,58.40
2022-12-27T10:36:43.001Z,58.40
2022-12-27T10:39:17.531Z,58.50
2022-12-27T10:41:54.106Z,58.20
2022-12-27T10:44:23.248Z,58.20
2022-12-27T10:46:53.496Z,58.10
2022-12-27T10:49:26.233Z,58.00
2022-12-27T10:51:56.655Z,57.80
2022-12-27T10:54:25.310Z,57.70
2022-12-27T10:56:52.547Z,57.50
2022-12-27T10:59:21.270Z,57.60
2022-12-27T11:02:07.640Z,57.60
2022-12-27T11:04:34.481Z,57.60
2022-12-27T11:07:12.917Z,57.50
2022-12-27T11:09:44.938Z,57.30
2022-12-27T11:12:21.715Z,57.40
2022-12-27T11:14:57.121Z,57.50
2022-12-27T11:17:28.974Z,57.50
2022-12-27T11:19:58.347Z,57.60
2022-12-27T11:22:25.987Z,57.60
2022-12-27T11:24:55.803Z,57.50
2022-12-27T11:27:25.199Z,57.40
2022-12-27T11:29:55.695Z,57.40
2022-12-27T11:32:23.335Z,57.40
2022-12-27T11:34:53.026Z,57.30
2022-12-27T11:37:23.011Z,57.30
2022-12-27T11:39:51.436Z,57.20
2022-12-27T11:42:28.904Z,57.30
2022-12-27T11:45:04.882Z,57.20
2022-12-27T11:47:41.020Z,57.20
2022-12-27T11:50:47.668Z,57.20
2022-12-27T11:53:27.868Z,57.10
2022-12-27T11:56:18.532Z,57.40
2022-12-27T11:59:14.010Z,57.20
2022-12-27T12:02:04.344Z,57.30
2022-12-27T12:05:13.223Z,57.40
2022-12-27T12:07:54.211Z,57.40
2022-12-27T12:10:29.819Z,57.40
2022-12-27T12:13:20.315Z,57.20
2022-12-27T12:16:24.007Z,56.90
2022-12-27T12:19:10.776Z,57.00
2022-12-27T12:21:46.361Z,57.20
2022-12-27T12:24:36.156Z,56.90
2022-12-27T12:27:20.223Z,56.80
2022-12-27T12:30:27.586Z,56.90
2022-12-27T12:33:06.503Z,56.80
2022-12-27T12:36:01.487Z,56.70
2022-12-27T12:38:34.983Z,56.40
2022-12-27T12:41:20.778Z,56.50
2022-12-27T12:44:26.445Z,56.50
2022-12-27T12:47:01.329Z,56.70
2022-12-27T12:50:13.777Z,57.20
2022-12-27T12:52:53.120Z,57.20
2022-12-27T12:55:38.909Z,57.50
2022-12-27T12:58:26.490Z,57.60
2022-12-27T13:01:04.802Z,57.50
2022-12-27T13:04:01.362Z,57.70
2022-12-27T13:06:56.563Z,57.80
2022-12-27T13:09:40.274Z,58.10
2022-12-27T13:12:12.011Z,58.30
2022-12-27T13:17:58.407Z,58.30
2022-12-27T13:20:50.420Z,58.30
2022-12-27T13:23:30.270Z,58.10
2022-12-27T13:26:05.475Z,57.90
2022-12-27T13:28:41.359Z,57.90
2022-12-27T13:31:22.176Z,57.60
2022-12-27T13:34:01.705Z,57.50
2022-12-27T13:36:34.264Z,57.40
2022-12-27T13:39:23.953Z,57.40
2022-12-27T13:42:01.731Z,57.30
2022-12-27T13:44:42.214Z,57.40
2022-12-27T13:47:40.487Z,57.50
2022-12-27T13:50:23.327Z,57.50
2022-12-27T13:53:06.779Z,57.70
2022-12-27T13:55:54.222Z,57.70
2022-12-27T13:58:44.325Z,57.60
2022-12-27T14:01:36.544Z,57.60
2022-12-27T14:04:42.854Z,57.50
2022-12-27T14:07:30.906Z,57.60
2022-12-27T14:10:13.844Z,57.60
2022-12-27T14:13:01.322Z,57.60
2022-12-27T14:15:43.293Z,57.50
2022-12-27T14:18:29.939Z,57.60
2022-12-27T14:21:11.412Z,57.50
2022-12-27T14:23:52.432Z,57.50
2022-12-27T14:26:55.203Z,57.60
2022-12-27T14:30:04.988Z,57.40
2022-12-27T14:33:19.504Z,57.60
2022-12-27T14:36:25.263Z,57.50
2022-12-27T14:39:43.193Z,57.70
2022-12-27T14:42:44.059Z,57.60
2022-12-27T14:45:46.272Z,57.70
2022-12-27T14:48:41.610Z,57.80
2022-12-27T14:52:00.044Z,57.80
2022-12-27T14:55:04.029Z,57.80
2022-12-27T14:57:39.652Z,57.80
2022-12-27T15:00:15.298Z,58.00
2022-12-27T15:03:06.583Z,57.90
2022-12-27T15:05:50.349Z,57.80
2022-12-27T15:08:42.056Z,57.90
2022-12-27T15:11:33.567Z,57.90
2022-12-27T15:14:24.684Z,57.70
2022-12-27T15:17:05.013Z,57.80
2022-12-27T15:19:54.451Z,57.70
2022-12-27T15:22:28.215Z,57.60
2022-12-27T15:25:02.147Z,57.50
2022-12-27T15:27:37.333Z,57.40
2022-12-27T15:30:16.107Z,57.30
2022-12-27T15:32:53.379Z,57.20
2022-12-27T15:35:49.790Z,57.10
2022-12-27T15:38:18.524Z,56.90
2022-12-27T15:41:10.619Z,57.00
2022-12-27T15:44:08.490Z,56.80
2022-12-27T15:47:01.117Z,56.80
2022-12-27T15:49:44.320Z,56.80
2022-12-27T15:52:17.798Z,56.80
2022-12-27T15:55:09.569Z,56.80
2022-12-27T15:57:53.506Z,56.60
2022-12-27T16:00:33.900Z,56.60
2022-12-27T16:03:24.317Z,56.50
2022-12-27T16:05:52.828Z,56.50
2022-12-27T16:08:31.729Z,56.50
2022-12-27T16:11:00.980Z,56.40
2022-12-27T16:13:42.658Z,57.10
2022-12-27T16:16:34.151Z,56.30
2022-12-27T16:19:22.405Z,56.30
2022-12-27T16:21:49.322Z,56.30
2022-12-27T16:24:20.720Z,56.30
2022-12-27T16:26:57.824Z,56.30
2022-12-27T16:29:28.666Z,56.30
2022-12-27T16:32:15.445Z,56.40
2022-12-27T16:34:45.707Z,56.30
2022-12-27T16:37:27.704Z,56.50
2022-12-27T16:40:20.669Z,56.50
2022-12-27T16:43:23.653Z,56.60
2022-12-27T16:45:57.640Z,56.70
2022-12-27T16:48:33.468Z,56.80
2022-12-27T16:51:16.924Z,56.80
2022-12-27T16:53:55.795Z,56.80
2022-12-27T16:56:23.622Z,56.90
2022-12-27T16:58:50.616Z,57.10
2022-12-27T17:02:02.549Z,57.00
2022-12-27T17:04:52.751Z,56.90
2022-12-27T17:07:48.698Z,57.00
2022-12-27T17:10:34.091Z,57.00
2022-12-27T17:13:09.178Z,57.10
2022-12-27T17:15:47.756Z,57.10
2022-12-27T17:18:27.137Z,57.10
2022-12-27T17:21:00.649Z,57.30
2022-12-27T17:23:29.650Z,57.20
2022-12-27T17:26:10.056Z,57.20
2022-12-27T17:28:55.308Z,57.20
2022-12-27T17:31:34.081Z,57.10
2022-12-27T17:34:14.755Z,57.10
2022-12-27T17:37:29.739Z,57.10
2022-12-27T17:46:46.808Z,57.10
2022-12-27T17:49:16.413Z,57.20
2022-12-27T17:51:45.664Z,57.20
2022-12-27T17:54:23.492Z,57.10
2022-12-27T17:57:11.657Z,57.20
2022-12-27T17:59:43.357Z,57.20
2022-12-27T18:02:18.026Z,57.10
2022-12-27T18:04:49.125Z,57.00
2022-12-27T18:07:24.396Z,57.10
2022-12-27T18:09:55.100Z,57.10
2022-12-27T18:12:25.528Z,57.10
2022-12-27T18:14:57.112Z,57.20
2022-12-27T18:17:29.032Z,57.10
2022-12-27T18:19:57.536Z,57.10
2022-12-27T18:22:24.542Z,57.00
2022-12-27T18:24:51.222Z,56.90
2022-12-27T18:27:20.558Z,56.90
2022-12-27T18:29:47.669Z,56.90
2022-12-27T18:32:17.567Z,56.90
2022-12-27T18:34:49.935Z,56.90
2022-12-27T18:37:19.945Z,56.90
2022-12-27T18:39:49.779Z,56.90
2022-12-27T18:42:19.661Z,56.90
2022-12-27T18:44:49.245Z,56.80
2022-12-27T18:47:21.153Z,56.90
2022-12-27T18:49:53.751Z,56.90
2022-12-27T18:52:26.109Z,57.00
2022-12-27T18:54:53.488Z,56.90
2022-12-27T18:57:33.150Z,56.80
2022-12-27T19:00:14.461Z,56.90
2022-12-27T19:02:42.414Z,57.00
2022-12-27T19:05:28.108Z,57.00
2022-12-27T19:08:00.326Z,57.00
2022-12-27T19:10:29.087Z,57.10
2022-12-27T19:12:59.163Z,57.10
2022-12-27T19:15:28.943Z,57.30
2022-12-27T19:17:59.298Z,57.40
2022-12-27T19:20:28.186Z,57.30
2022-12-27T19:23:05.335Z,57.20
2022-12-27T19:25:33.346Z,57.20
2022-12-27T19:28:05.039Z,57.30
2022-12-27T19:30:35.251Z,57.30
2022-12-27T19:33:05.403Z,57.20
2022-12-27T19:35:32.409Z,57.50
2022-12-27T19:38:27.018Z,57.50
2022-12-27T19:41:03.058Z,57.50
2022-12-27T19:43:37.056Z,57.60
2022-12-27T19:46:04.057Z,57.40
2022-12-27T19:48:32.453Z,57.40
2022-12-27T19:50:59.707Z,57.50
2022-12-27T19:53:31.419Z,57.40
2022-12-27T19:55:58.144Z,57.40
2022-12-27T19:58:27.106Z,58.10
2022-12-27T20:00:54.182Z,57.50
2022-12-27T20:03:21.149Z,57.40
2022-12-27T20:06:11.150Z,57.40
2022-12-27T20:08:38.600Z,57.40
2022-12-27T20:11:07.709Z,57.40
2022-12-27T20:13:34.560Z,57.60
2022-12-27T20:16:01.631Z,57.70
2022-12-27T20:19:00.810Z,57.40
2022-12-27T20:21:33.337Z,57.40
2022-12-27T20:24:01.824Z,57.40
2022-12-27T20:26:28.585Z,57.80
2022-12-27T20:28:55.351Z,57.90
2022-12-27T20:31:22.328Z,57.90
2022-12-27T20:33:51.511Z,58.00
2022-12-27T20:36:20.888Z,57.90
2022-12-27T20:38:47.826Z,58.00
2022-12-27T20:41:37.509Z,58.00
2022-12-27T20:44:19.389Z,57.80
2022-12-27T20:46:46.229Z,57.90
2022-12-27T20:49:13.090Z,57.80
2022-12-27T20:51:45.023Z,57.70
2022-12-27T20:54:12.404Z,57.80
2022-12-27T20:56:41.035Z,57.70
2022-12-27T20:59:07.792Z,57.80
2022-12-27T21:01:34.719Z,57.60
2022-12-27T21:04:02.036Z,57.80
2022-12-27T21:06:29.254Z,57.50
2022-12-27T21:08:58.238Z,57.80
2022-12-27T21:11:27.257Z,58.40
2022-12-27T21:13:55.740Z,57.80
2022-12-27T21:16:24.155Z,58.40
2022-12-27T21:18:51.226Z,57.80
2022-12-27T21:21:20.042Z,57.80
2022-12-27T21:23:47.369Z,57.80
2022-12-27T21:26:16.407Z,57.80
2022-12-27T21:28:43.804Z,57.90
2022-12-27T21:31:13.121Z,57.90
2022-12-27T21:33:40.487Z,57.70
2022-12-27T21:36:11.004Z,57.80
2022-12-27T21:38:37.860Z,57.70
2022-12-27T21:41:06.215Z,57.70
2022-12-27T21:43:41.636Z,57.80
2022-12-27T21:46:11.656Z,57.90
2022-12-27T21:48:38.457Z,57.90
2022-12-27T21:51:06.546Z,57.70
2022-12-27T21:53:33.778Z,57.90
2022-12-27T21:56:00.934Z,57.80
2022-12-27T21:58:30.010Z,57.70
2022-12-27T22:01:08.154Z,57.70
2022-12-27T22:03:39.018Z,57.60
2022-12-27T22:06:10.792Z,57.70
2022-12-27T22:08:37.706Z,57.60
2022-12-27T22:11:04.709Z,57.60
2022-12-27T22:13:31.489Z,57.40
2022-12-27T22:16:00.445Z,57.40
2022-12-27T22:18:31.003Z,57.50
2022-12-27T22:21:01.076Z,57.40
2022-12-27T22:23:30.355Z,57.40
2022-12-27T22:25:57.283Z,57.60
2022-12-27T22:28:24.160Z,58.00
2022-12-27T22:30:51.015Z,57.30
2022-12-27T22:33:17.786Z,57.40
2022-12-27T22:35:44.845Z,57.30
2022-12-27T22:38:13.009Z,57.50
2022-12-27T22:40:46.427Z,57.50
2022-12-27T22:43:13.778Z,57.30
2022-12-27T22:45:40.909Z,57.40
2022-12-27T22:48:07.715Z,57.30
2022-12-27T22:50:34.505Z,57.40
2022-12-27T22:53:01.232Z,57.40
2022-12-27T22:55:29.391Z,57.30
2022-12-27T22:57:56.080Z,57.20
2022-12-27T23:00:23.019Z,57.30
2022-12-27T23:02:50.586Z,57.20
2022-12-27T23:05:19.252Z,57.10
2022-12-27T23:08:03.376Z,57.20
2022-12-27T23:10:34.286Z,57.20
2022-12-27T23:13:01.029Z,57.30
2022-12-27T23:15:27.752Z,57.40
2022-12-27T23:17:54.462Z,57.30
2022-12-27T23:20:21.184Z,57.30
2022-12-27T23:22:47.868Z,57.20
2022-12-27T23:25:14.753Z,57.20
2022-12-27T23:27:42.857Z,57.20
2022-12-27T23:30:11.267Z,57.20
2022-12-27T23:32:37.975Z,57.20
2022-12-27T23:35:05.318Z,57.10
2022-12-27T23:37:32.034Z,57.10
2022-12-27T23:39:58.724Z,57.10
2022-12-27T23:42:25.487Z,57.20
2022-12-27T23:44:53.743Z,57.00
2022-12-27T23:47:27.197Z,57.10
2022-12-27T23:49:56.040Z,57.00
2022-12-27T23:52:22.820Z,57.10
2022-12-27T23:54:49.734Z,56.90
2022-12-27T23:57:20.171Z,56.80
2022-12-27T23:59:49.731Z,56.80
